Portada
METAR-TAF:

METAR-TAF

Aeropuertos :

Aeropuerto de Santiago de Compostela

Santiago de Compostela, España

latitud: 42-54N, longitud: 008-26W, altitud: 370 m

Observación

El informe se hizo hace 12 minutos, a las 02:00 UTC
Viento 3 kt con dirección variable
Temperatura 4°C
Humedad 93%
Presión 1018 hPa
Visibilidad 10 km o más
sin nubes por debajo de 1500 m y sin presencia de cumulonimbus.

METAR: LEST 240200Z VRB03KT CAVOK 04/03 Q1018 NOSIG

Hora: 03:12 (02:12 UTC)

Pronóstico

El informe se hizo hace 3 horas y 12 minutos, a las 23:00 UTC
Pronóstico válido del 24 a las 00 UTC al 24 a las 24 UTC
Viento 5 kt del este-sureste
Visibilidad 10 km o más
sin nubes por debajo de 1500 m y sin presencia de cumulonimbus.

TAF: LEST 232300Z 2400/2424 12005KT CAVOK TX13/2414Z TN03/2407Z

Observaciones y pronósticos meteorológicos de más de 4000 aeropuertos (mensajes METAR y TAF).

Los puntos amarillos y rojos representan las estaciones disponibles.

Ponga el ratón en el punto deseado para ver el nombre de la estación.

Haga clic para ver las observaciones y los pronósticos meteorológicos.

Para cambiar el mapa : haga clic en los botones verdes con una cruz de color negro para hacer un zoom, en el botón verde con un guión para alejar o en las flechas verdes para mapas adyacentes.


METAR-TAF: